This is the latest recevied weather packets stored in our database for station/object OE-11272. If no packets are shown the sender has not sent any weather packets the latest 10 day(s).
| Time | Temp. | Humidity | Pressure | Rain* | Wind** | Luminosity | Snow |
|---|---|---|---|---|---|---|---|
| 1787724698 | 16.67° C | 89% | 1019.1 hPa | 0 mm | - | 269 W/m² | - |
| 1787724326 | 16.11° C | 90% | 1019 hPa | 0 mm | - | 244 W/m² | - |
| 1787723725 | 15.56° C | 92% | 1019.2 hPa | 0 mm | - | 181 W/m² | - |
| 1787722898 | 15° C | 93% | 1019.2 hPa | 0 mm | - | 69 W/m² | - |
| 1787722526 | 14.44° C | 98% | 1019.4 hPa | 0 mm | - | 44 W/m² | - |
| 1787721926 | 13.89° C | 99% | 1019.5 hPa | 0 mm | - | 31 W/m² | - |
| 1787721098 | 13.89° C | 100% | 1019.5 hPa | 0 mm | - | 25 W/m² | - |
| 1787720726 | 13.89° C | 99% | 1019.4 hPa | 0 mm | - | 19 W/m² | - |
| 1787720126 | 13.89° C | 99% | 1019.1 hPa | 0 mm | - | 12 W/m² | - |
| 1787719299 | 13.89° C | 98% | 1019 hPa | 0 mm | - | 6 W/m² | - |
| 1787718926 | 13.89° C | 98% | 1019 hPa | 0 mm | - | 0 W/m² | - |
| 1787718325 | 14.44° C | 97% | 1019 hPa | 0 mm | - | 0 W/m² | - |
| 1787717498 | 14.44° C | 98% | 1018.9 hPa | 0 mm | - | 0 W/m² | - |
| 1787717126 | 14.44° C | 99% | 1018.9 hPa | 0 mm | - | 0 W/m² | - |
| 1787716525 | 14.44° C | 98% | 1018.8 hPa | 0 mm | - | 0 W/m² | - |
| 1787715926 | 15° C | 97% | 1018.5 hPa | 0 mm | - | 0 W/m² | - |
| 1787715325 | 15° C | 96% | 1018.6 hPa | 0 mm | - | 0 W/m² | - |
| 1787714726 | 15° C | 96% | 1018.6 hPa | 0 mm | - | 0 W/m² | - |
| 1787713898 | 15° C | 96% | 1018.6 hPa | 0 mm | - | 0 W/m² | - |
| 1787713526 | 15° C | 97% | 1018.6 hPa | 0 mm | - | 0 W/m² | - |
| 1787712926 | 15° C | 96% | 1018.4 hPa | 0 mm | - | 0 W/m² | - |
| 1787712098 | 15.56° C | 96% | 1018.4 hPa | 0 mm | - | 0 W/m² | - |
| 1787711726 | 15.56° C | 95% | 1018.2 hPa | 0 mm | - | 0 W/m² | - |
| 1787711126 | 15.56° C | 96% | 1018.1 hPa | 0 mm | - | 0 W/m² | - |
| 1787710299 | 15.56° C | 95% | 1018.1 hPa | 0 mm | - | 0 W/m² | - |
* Rain latest hour (hover to see other rain measurements)
** Current wind speed in m/s (hover to see current wind gust speed)